Time;durP1;ratioP1;P1;durP2;ratioP2;P2;SDS_P1;SDS_P2;PMS_P1;PMS_P2;Temp;Humidity;BMP_temperature;BMP_pressure;BME280_temperature;BME280_humidity;BME280_pressure;Samples;Min_cycle;Max_cycle;Signal;HPM_P1;HPM_P2
2023/07/24 00:00:14;;;;;;;1.17;1.07;;;23.80;44.80;;;;;;4988575;28;20246;-62
2023/07/24 00:02:40;;;;;;;0.90;0.90;;;23.80;44.80;;;;;;4973602;28;20231;-61
2023/07/24 00:05:06;;;;;;;1.10;1.00;;;23.80;44.80;;;;;;4971565;28;20931;-63
2023/07/24 00:07:32;;;;;;;0.80;0.80;;;23.80;44.80;;;;;;4983984;28;20629;-61
2023/07/24 00:09:57;;;;;;;0.80;0.80;;;23.80;44.80;;;;;;4985213;28;20312;-61
2023/07/24 00:12:23;;;;;;;1.20;1.10;;;23.80;44.80;;;;;;4986838;28;20250;-61
2023/07/24 00:14:48;;;;;;;0.90;0.90;;;23.80;44.80;;;;;;4983360;28;20559;-61
2023/07/24 00:17:14;;;;;;;1.10;1.00;;;23.80;44.80;;;;;;4973237;28;20235;-62
2023/07/24 00:19:39;;;;;;;0.93;0.90;;;23.80;44.80;;;;;;4979720;28;20219;-61
2023/07/24 00:22:05;;;;;;;0.80;0.80;;;23.80;44.80;;;;;;4994690;28;20227;-63
2023/07/24 00:24:32;;;;;;;0.80;0.80;;;23.80;44.90;;;;;;4991600;28;20228;-62
2023/07/24 00:26:57;;;;;;;0.90;0.90;;;23.80;44.90;;;;;;4991612;28;20297;-61
2023/07/24 00:29:23;;;;;;;1.17;1.07;;;23.80;44.90;;;;;;4977557;28;20458;-63
2023/07/24 00:31:49;;;;;;;0.73;0.73;;;23.80;44.90;;;;;;4975768;28;20231;-61
2023/07/24 00:34:14;;;;;;;0.90;0.90;;;23.80;44.90;;;;;;4975880;28;20217;-61
2023/07/24 00:36:40;;;;;;;1.03;0.93;;;23.80;44.90;;;;;;4976695;28;20252;-60
2023/07/24 00:39:06;;;;;;;1.13;1.10;;;23.80;44.90;;;;;;4980273;28;20220;-65
2023/07/24 00:41:31;;;;;;;1.07;1.00;;;23.80;44.90;;;;;;4983452;28;20239;-62
2023/07/24 00:43:57;;;;;;;0.90;0.90;;;23.80;44.90;;;;;;4982002;28;20695;-61
2023/07/24 00:46:23;;;;;;;1.13;1.03;;;23.80;44.90;;;;;;4988200;28;20704;-62
2023/07/24 00:48:48;;;;;;;1.00;0.90;;;23.80;44.90;;;;;;4999078;28;20247;-61
2023/07/24 00:51:14;;;;;;;1.17;1.07;;;23.80;44.90;;;;;;4992448;28;20486;-61
2023/07/24 00:53:40;;;;;;;0.90;0.90;;;23.80;45.00;;;;;;4985458;28;20224;-61
2023/07/24 00:56:06;;;;;;;0.97;0.90;;;23.80;45.00;;;;;;4977552;28;20223;-62
2023/07/24 00:58:33;;;;;;;0.90;0.90;;;23.80;44.90;;;;;;4975683;28;20252;-63
2023/07/24 01:00:58;;;;;;;0.90;0.90;;;23.80;45.00;;;;;;4974914;28;20478;-62
2023/07/24 01:03:31;;;;;;;1.20;1.10;;;23.80;45.00;;;;;;5016772;28;20461;-62
2023/07/24 01:05:57;;;;;;;0.80;0.80;;;23.70;45.20;;;;;;4976114;28;20271;-62
2023/07/24 01:08:23;;;;;;;0.97;0.90;;;23.80;45.00;;;;;;4974651;28;20476;-62
2023/07/24 01:10:49;;;;;;;1.67;1.10;;;23.80;45.00;;;;;;4975729;28;20887;-61
2023/07/24 01:13:24;;;;;;;0.83;0.80;;;23.80;45.00;;;;;;4977876;28;20688;-62
2023/07/24 01:16:08;;;;;;;2.17;1.27;;;23.80;45.00;;;;;;4984693;28;20237;-61
2023/07/24 01:18:36;;;;;;;1.00;0.90;;;23.70;44.90;;;;;;4994182;28;20501;-61
2023/07/24 01:21:05;;;;;;;1.20;1.10;;;23.80;45.00;;;;;;4990462;28;20449;-61
2023/07/24 01:23:37;;;;;;;1.00;1.00;;;23.80;45.00;;;;;;4974628;28;20500;-62
2023/07/24 01:26:02;;;;;;;1.67;0.93;;;23.80;45.00;;;;;;4972722;28;21436;-61
2023/07/24 01:28:28;;;;;;;0.90;0.90;;;23.70;44.90;;;;;;4983053;28;20469;-61
2023/07/24 01:30:55;;;;;;;1.20;1.10;;;23.80;45.00;;;;;;4994586;28;20252;-62
2023/07/24 01:33:21;;;;;;;0.90;0.90;;;23.70;44.90;;;;;;4992935;28;20454;-62
2023/07/24 01:35:50;;;;;;;1.20;1.10;;;23.80;45.10;;;;;;4979164;28;20457;-62
2023/07/24 01:38:16;;;;;;;1.20;1.10;;;23.70;45.00;;;;;;4975606;28;20873;-62
2023/07/24 01:40:42;;;;;;;1.07;1.00;;;23.80;45.10;;;;;;4986368;28;20492;-61
2023/07/24 01:43:09;;;;;;;1.20;1.10;;;23.80;45.10;;;;;;4994210;28;20311;-61
2023/07/24 01:45:35;;;;;;;0.90;0.90;;;23.80;45.10;;;;;;4991888;28;20453;-62
2023/07/24 01:48:03;;;;;;;1.20;1.10;;;23.70;45.00;;;;;;4994568;28;20456;-62
2023/07/24 01:50:28;;;;;;;0.90;0.90;;;23.80;45.10;;;;;;4993291;28;21338;-62
2023/07/24 01:52:54;;;;;;;1.13;1.03;;;23.80;45.10;;;;;;4993179;28;20449;-62
2023/07/24 01:55:19;;;;;;;0.90;0.90;;;23.80;45.10;;;;;;4976182;28;20223;-61
2023/07/24 01:57:45;;;;;;;1.30;0.90;;;23.80;45.20;;;;;;4976284;28;20259;-61
2023/07/24 02:00:11;;;;;;;1.10;1.00;;;23.70;45.10;;;;;;4974766;28;20620;-61
2023/07/24 02:02:36;;;;;;;0.97;0.87;;;23.70;45.10;;;;;;4974383;28;20371;-62
2023/07/24 02:05:02;;;;;;;1.00;1.00;;;23.70;45.00;;;;;;4973322;28;21041;-62
2023/07/24 02:07:27;;;;;;;2.03;0.90;;;23.80;45.20;;;;;;4976045;28;20247;-62
2023/07/24 02:09:53;;;;;;;1.10;1.00;;;23.80;45.20;;;;;;4973173;28;20213;-61
2023/07/24 02:12:18;;;;;;;0.93;0.93;;;23.70;45.10;;;;;;4991354;28;20231;-62
2023/07/24 02:14:44;;;;;;;1.10;1.00;;;23.70;45.10;;;;;;4980426;28;20818;-61
2023/07/24 02:17:09;;;;;;;1.30;1.20;;;23.70;45.00;;;;;;4975007;28;20236;-61
2023/07/24 02:19:35;;;;;;;1.10;1.00;;;23.70;45.10;;;;;;4985851;28;20220;-61
2023/07/24 02:22:00;;;;;;;1.20;1.10;;;23.70;45.00;;;;;;4994910;28;20380;-61
2023/07/24 02:24:26;;;;;;;1.63;0.87;;;23.70;45.10;;;;;;4994486;28;20238;-62
2023/07/24 02:26:52;;;;;;;0.90;0.90;;;23.70;45.10;;;;;;4979519;28;20251;-62
2023/07/24 02:29:18;;;;;;;1.10;1.00;;;23.70;45.10;;;;;;4972564;28;20221;-62
2023/07/24 02:31:44;;;;;;;0.80;0.80;;;23.70;45.10;;;;;;4973328;28;20460;-62
2023/07/24 02:34:09;;;;;;;0.93;0.90;;;23.70;45.10;;;;;;4985531;28;20224;-61
2023/07/24 02:36:36;;;;;;;0.93;0.90;;;23.70;45.10;;;;;;4992613;28;21089;-61
2023/07/24 02:39:01;;;;;;;0.97;0.97;;;23.80;45.20;;;;;;4993730;28;20227;-62
2023/07/24 02:41:27;;;;;;;1.00;1.00;;;23.70;45.10;;;;;;4993742;28;20556;-61
2023/07/24 02:43:52;;;;;;;1.27;1.07;;;23.70;45.10;;;;;;4994298;28;20228;-62
2023/07/24 02:46:18;;;;;;;1.20;1.10;;;23.70;45.10;;;;;;4972708;28;20237;-62
2023/07/24 02:48:43;;;;;;;0.90;0.80;;;23.70;45.20;;;;;;4977194;28;20224;-61
2023/07/24 02:51:09;;;;;;;0.77;0.77;;;23.70;45.20;;;;;;4973780;28;20283;-62
2023/07/24 02:53:34;;;;;;;1.00;0.90;;;23.80;45.30;;;;;;4975380;28;20224;-61
2023/07/24 02:56:02;;;;;;;1.13;1.03;;;23.80;45.30;;;;;;4975833;28;20783;-61
2023/07/24 02:58:27;;;;;;;1.10;1.00;;;23.70;45.10;;;;;;4974603;28;20295;-63
2023/07/24 03:00:53;;;;;;;1.10;1.00;;;23.70;45.10;;;;;;4975033;28;20861;-61
2023/07/24 03:03:19;;;;;;;1.23;1.13;;;23.70;45.20;;;;;;4981319;28;20224;-61
2023/07/24 03:05:44;;;;;;;0.80;0.80;;;23.70;45.20;;;;;;5013655;28;20695;-62
2023/07/24 03:08:10;;;;;;;1.20;1.10;;;23.70;45.20;;;;;;4972969;28;20271;-62
2023/07/24 03:10:39;;;;;;;1.20;1.10;;;23.80;45.30;;;;;;4972772;28;20810;-61
2023/07/24 03:13:04;;;;;;;1.10;1.00;;;23.70;45.20;;;;;;4992381;28;20590;-61
2023/07/24 03:15:30;;;;;;;1.10;1.00;;;23.70;46.00;;;;;;4976016;28;20470;-61
2023/07/24 03:17:55;;;;;;;0.90;0.90;;;23.80;45.30;;;;;;4974500;28;20219;-61
2023/07/24 03:20:21;;;;;;;1.20;1.10;;;23.70;45.20;;;;;;4978482;28;20247;-62
2023/07/24 03:22:47;;;;;;;0.83;0.83;;;23.70;45.20;;;;;;4974346;28;20279;-61
2023/07/24 03:25:13;;;;;;;1.23;1.17;;;23.70;45.20;;;;;;4978372;28;20220;-61
2023/07/24 03:27:38;;;;;;;1.00;1.00;;;23.70;45.10;;;;;;4979593;28;20238;-61
2023/07/24 03:30:05;;;;;;;1.20;1.10;;;23.70;45.20;;;;;;4972622;28;20458;-62
2023/07/24 03:32:30;;;;;;;1.10;1.03;;;23.70;45.30;;;;;;4973982;28;20704;-61
2023/07/24 03:34:56;;;;;;;1.20;1.10;;;23.70;45.20;;;;;;4978131;28;20458;-62
2023/07/24 03:37:21;;;;;;;1.20;1.10;;;23.70;45.20;;;;;;4982725;28;20232;-62
2023/07/24 03:39:47;;;;;;;1.20;1.10;;;23.70;45.20;;;;;;4990976;28;20222;-63
2023/07/24 03:42:23;;;;;;;1.10;1.00;;;23.70;45.20;;;;;;4993648;28;20302;-62
2023/07/24 03:44:49;;;;;;;1.20;1.10;;;23.70;45.20;;;;;;4990115;28;20230;-62
2023/07/24 03:47:14;;;;;;;1.00;0.90;;;23.70;45.20;;;;;;4993932;28;20465;-62
2023/07/24 03:49:40;;;;;;;1.10;1.00;;;23.80;45.30;;;;;;4994251;28;20235;-62
2023/07/24 03:52:05;;;;;;;1.27;1.17;;;23.70;45.30;;;;;;4992658;28;20266;-62
2023/07/24 03:54:31;;;;;;;1.30;0.80;;;23.70;45.20;;;;;;4977778;28;20587;-62
2023/07/24 03:56:56;;;;;;;1.43;1.33;;;23.70;45.30;;;;;;4972832;28;20743;-61
2023/07/24 03:59:22;;;;;;;1.10;1.00;;;23.70;45.30;;;;;;4984546;28;20244;-62
2023/07/24 04:01:47;;;;;;;1.10;1.00;;;23.70;45.30;;;;;;4991414;28;20703;-61
2023/07/24 04:04:13;;;;;;;1.00;0.90;;;23.70;45.30;;;;;;4994445;28;20223;-62
2023/07/24 04:06:38;;;;;;;1.23;1.13;;;23.70;45.30;;;;;;4989114;28;20240;-61
2023/07/24 04:09:04;;;;;;;1.10;1.00;;;23.80;46.20;;;;;;4979603;28;20639;-61
2023/07/24 04:11:29;;;;;;;1.30;1.20;;;23.80;45.40;;;;;;4975677;28;20689;-63
2023/07/24 04:13:55;;;;;;;1.10;1.00;;;23.70;45.40;;;;;;4981154;28;20224;-61
2023/07/24 04:16:20;;;;;;;1.00;1.00;;;23.70;45.30;;;;;;4983515;28;20290;-61
2023/07/24 04:18:46;;;;;;;1.30;1.00;;;23.70;45.40;;;;;;4976220;28;20221;-61
2023/07/24 04:21:11;;;;;;;1.17;1.07;;;23.70;45.50;;;;;;4989674;28;20234;-61
2023/07/24 04:23:37;;;;;;;1.20;1.10;;;23.70;45.40;;;;;;4994060;28;20557;-61
2023/07/24 04:26:02;;;;;;;1.00;0.93;;;23.70;45.30;;;;;;4995507;28;20628;-62
2023/07/24 04:28:28;;;;;;;1.03;0.97;;;23.70;45.40;;;;;;4994545;28;20219;-61
2023/07/24 04:30:53;;;;;;;1.37;1.27;;;23.70;45.40;;;;;;4992968;28;20281;-61
2023/07/24 04:33:19;;;;;;;1.13;1.03;;;23.80;45.50;;;;;;4999991;28;20247;-62
2023/07/24 04:35:48;;;;;;;1.17;1.07;;;23.70;45.40;;;;;;4998007;28;20279;-61
2023/07/24 04:38:14;;;;;;;1.37;1.20;;;23.70;45.30;;;;;;5005370;28;20310;-64
2023/07/24 04:40:39;;;;;;;1.30;1.20;;;23.80;45.50;;;;;;4993476;28;20543;-62
2023/07/24 04:43:05;;;;;;;1.03;0.93;;;23.70;45.30;;;;;;4994465;28;20674;-62
2023/07/24 04:45:30;;;;;;;1.20;1.10;;;23.70;45.30;;;;;;4992985;28;20707;-62
2023/07/24 04:47:56;;;;;;;1.10;1.00;;;23.70;45.30;;;;;;4989296;28;20226;-61
2023/07/24 04:50:21;;;;;;;1.17;1.07;;;23.70;45.30;;;;;;4995240;28;20223;-61
2023/07/24 04:52:47;;;;;;;1.13;1.03;;;23.80;45.40;;;;;;4996202;28;20283;-61
2023/07/24 04:55:12;;;;;;;1.00;0.90;;;23.80;45.40;;;;;;4995474;28;20225;-61
2023/07/24 04:57:38;;;;;;;1.20;1.10;;;23.70;45.30;;;;;;4992809;28;20227;-61
2023/07/24 05:00:04;;;;;;;1.10;1.00;;;23.80;45.40;;;;;;4996830;28;21586;-63
2023/07/24 05:02:29;;;;;;;1.20;1.10;;;23.80;45.30;;;;;;4993849;28;20680;-62
2023/07/24 05:04:55;;;;;;;0.93;0.90;;;23.70;45.20;;;;;;4992951;28;20475;-61
2023/07/24 05:07:21;;;;;;;1.17;1.07;;;23.80;45.30;;;;;;4993827;28;20251;-61
2023/07/24 05:09:46;;;;;;;1.33;1.10;;;23.80;45.30;;;;;;4982855;28;20224;-63
2023/07/24 05:12:12;;;;;;;1.30;1.20;;;23.80;45.30;;;;;;4973329;28;20220;-62
2023/07/24 05:14:37;;;;;;;1.10;1.10;;;23.80;45.20;;;;;;4977299;28;20815;-61
2023/07/24 05:17:03;;;;;;;1.13;1.03;;;23.80;45.30;;;;;;4977996;28;20236;-62
2023/07/24 05:19:29;;;;;;;1.70;1.30;;;23.80;45.30;;;;;;4974237;28;20235;-62
2023/07/24 05:21:54;;;;;;;1.10;1.00;;;23.80;45.30;;;;;;4980406;28;20596;-62
2023/07/24 05:24:20;;;;;;;1.20;1.10;;;23.80;45.30;;;;;;4977489;28;20227;-62
2023/07/24 05:26:45;;;;;;;1.13;1.03;;;23.80;45.30;;;;;;4974234;28;20244;-62
2023/07/24 05:29:10;;;;;;;1.07;1.00;;;23.80;45.30;;;;;;4976658;28;20220;-61
2023/07/24 05:31:36;;;;;;;1.10;1.00;;;23.80;45.30;;;;;;4973765;28;20582;-61
2023/07/24 05:34:03;;;;;;;1.10;1.00;;;23.80;45.30;;;;;;4975109;28;20233;-61
2023/07/24 05:36:29;;;;;;;1.00;0.90;;;23.80;45.30;;;;;;4984988;28;20232;-62
2023/07/24 05:38:54;;;;;;;1.50;1.40;;;23.80;45.30;;;;;;4999132;28;20452;-61
2023/07/24 05:41:20;;;;;;;1.03;0.93;;;23.80;45.20;;;;;;4993814;28;20661;-63
2023/07/24 05:43:45;;;;;;;1.10;1.00;;;23.80;45.30;;;;;;4992458;28;20221;-61
2023/07/24 05:46:11;;;;;;;1.60;1.50;;;23.80;45.30;;;;;;4975471;28;20243;-61
2023/07/24 05:48:36;;;;;;;1.20;1.10;;;23.80;45.30;;;;;;4976423;28;20235;-61
2023/07/24 05:51:02;;;;;;;1.20;1.10;;;23.80;45.20;;;;;;4974969;28;20604;-61
2023/07/24 05:53:27;;;;;;;1.23;1.13;;;23.80;45.20;;;;;;4976780;28;20258;-62
2023/07/24 05:56:01;;;;;;;1.23;1.13;;;23.80;45.20;;;;;;4975010;28;20284;-61
2023/07/24 05:58:26;;;;;;;1.30;1.20;;;23.80;45.20;;;;;;4979647;28;20286;-62
2023/07/24 06:00:52;;;;;;;1.20;1.10;;;23.80;45.20;;;;;;4994549;28;20461;-61
2023/07/24 06:03:18;;;;;;;1.30;1.20;;;23.80;45.20;;;;;;4985856;28;20314;-61
2023/07/24 06:05:43;;;;;;;1.27;1.17;;;23.80;45.20;;;;;;4983608;28;20222;-61
2023/07/24 06:08:10;;;;;;;1.10;1.03;;;23.80;45.20;;;;;;4985148;28;20319;-61
2023/07/24 06:10:36;;;;;;;1.30;1.20;;;23.80;45.20;;;;;;4983202;28;20231;-61
2023/07/24 06:13:02;;;;;;;1.30;1.20;;;23.80;45.20;;;;;;4983845;28;20514;-61
2023/07/24 06:15:27;;;;;;;1.13;1.03;;;23.80;45.20;;;;;;4990857;28;20230;-61
2023/07/24 06:17:53;;;;;;;1.20;1.10;;;23.80;45.60;;;;;;4984657;28;20227;-61
2023/07/24 06:20:18;;;;;;;1.40;1.30;;;23.80;45.20;;;;;;4981518;28;20231;-61
2023/07/24 06:22:44;;;;;;;0.90;0.90;;;23.80;45.20;;;;;;4974978;28;20216;-61
2023/07/24 06:25:09;;;;;;;1.30;1.20;;;23.80;45.20;;;;;;4989310;28;20307;-61
2023/07/24 06:27:35;;;;;;;1.10;1.00;;;23.80;45.20;;;;;;4977821;28;20291;-61
2023/07/24 06:30:00;;;;;;;1.40;1.30;;;23.80;45.20;;;;;;4973357;28;20216;-62
2023/07/24 06:32:26;;;;;;;1.23;1.13;;;23.80;45.90;;;;;;4984483;28;20232;-62
2023/07/24 06:34:51;;;;;;;1.20;1.10;;;23.80;45.20;;;;;;4974065;28;20223;-61
2023/07/24 06:37:17;;;;;;;1.10;1.00;;;23.80;45.20;;;;;;4980922;28;20239;-60
2023/07/24 06:39:43;;;;;;;1.27;1.17;;;23.80;45.20;;;;;;4995201;28;20230;-61
2023/07/24 06:42:09;;;;;;;1.50;1.40;;;23.80;45.20;;;;;;4990466;28;20228;-62
2023/07/24 06:44:34;;;;;;;1.20;1.10;;;23.80;45.20;;;;;;4975079;28;20461;-61
2023/07/24 06:47:00;;;;;;;1.30;1.20;;;23.80;45.20;;;;;;4975018;28;20244;-61
2023/07/24 06:49:25;;;;;;;1.13;1.03;;;23.80;45.80;;;;;;4975843;28;20236;-63
2023/07/24 06:51:51;;;;;;;1.10;1.00;;;23.80;45.20;;;;;;4978858;28;20692;-61
2023/07/24 06:54:16;;;;;;;1.40;1.30;;;23.80;45.20;;;;;;4974559;28;20315;-62
2023/07/24 06:56:42;;;;;;;1.20;1.10;;;23.80;45.20;;;;;;5009131;28;20267;-61
2023/07/24 06:59:07;;;;;;;1.30;1.20;;;23.80;45.20;;;;;;4978543;28;20290;-61
2023/07/24 07:01:33;;;;;;;1.30;1.20;;;23.80;45.20;;;;;;4971782;28;20221;-62
2023/07/24 07:03:58;;;;;;;1.20;1.10;;;23.80;45.20;;;;;;4989370;28;20231;-61
2023/07/24 07:06:24;;;;;;;1.20;1.10;;;23.80;45.20;;;;;;4991028;28;20244;-62
2023/07/24 07:08:49;;;;;;;2.07;1.20;;;23.80;45.20;;;;;;4994616;28;20260;-61
2023/07/24 07:11:15;;;;;;;1.47;1.37;;;23.80;45.20;;;;;;4987017;28;20898;-62
2023/07/24 07:13:40;;;;;;;2.17;2.07;;;23.80;45.20;;;;;;4973400;28;20224;-61
2023/07/24 07:16:06;;;;;;;1.30;1.20;;;23.80;45.20;;;;;;4972193;28;20228;-61
2023/07/24 07:18:31;;;;;;;1.43;1.33;;;23.80;45.30;;;;;;4995229;28;20215;-61
2023/07/24 07:20:57;;;;;;;1.30;1.20;;;23.80;45.30;;;;;;4993346;28;20270;-62
2023/07/24 07:23:22;;;;;;;1.20;1.10;;;23.80;45.20;;;;;;4995796;28;20624;-61
2023/07/24 07:25:49;;;;;;;1.40;1.30;;;23.80;46.00;;;;;;4990988;28;20237;-61
2023/07/24 07:28:16;;;;;;;1.37;1.20;;;23.80;46.00;;;;;;4994586;28;20227;-62
2023/07/24 07:30:42;;;;;;;1.30;1.20;;;23.80;45.20;;;;;;4994162;28;20806;-62
2023/07/24 07:33:08;;;;;;;1.23;1.13;;;23.80;45.30;;;;;;4992784;28;20445;-61
2023/07/24 07:35:35;;;;;;;1.60;1.50;;;23.80;45.20;;;;;;4990918;28;20465;-61
2023/07/24 07:38:01;;;;;;;1.20;1.10;;;23.80;45.20;;;;;;4994114;28;20467;-61
2023/07/24 07:40:27;;;;;;;1.33;1.23;;;23.80;45.20;;;;;;4994624;28;20970;-63
2023/07/24 07:42:53;;;;;;;1.17;1.07;;;23.80;45.20;;;;;;4997826;28;20465;-62
2023/07/24 07:45:19;;;;;;;1.50;1.40;;;23.80;45.20;;;;;;4995222;28;20456;-61
2023/07/24 07:47:45;;;;;;;1.30;1.20;;;23.80;45.20;;;;;;4982259;28;20462;-62
2023/07/24 07:50:11;;;;;;;1.50;1.20;;;23.80;45.20;;;;;;4981382;28;20450;-62
2023/07/24 07:52:36;;;;;;;1.50;1.40;;;23.80;45.20;;;;;;4976574;28;20231;-61
2023/07/24 07:55:02;;;;;;;1.40;1.30;;;23.80;45.30;;;;;;4977011;28;20484;-61
2023/07/24 07:57:28;;;;;;;1.37;1.27;;;23.80;45.30;;;;;;4975064;28;20317;-61
2023/07/24 07:59:53;;;;;;;1.00;1.00;;;23.80;45.20;;;;;;4982774;28;20241;-62
2023/07/24 08:02:19;;;;;;;1.30;1.20;;;23.80;45.30;;;;;;4975943;28;20711;-63
2023/07/24 08:04:44;;;;;;;1.30;1.20;;;23.80;45.30;;;;;;4977239;28;20251;-63
2023/07/24 08:07:10;;;;;;;1.47;1.37;;;23.80;45.30;;;;;;4979418;28;20228;-61
2023/07/24 08:09:37;;;;;;;1.40;1.30;;;23.80;45.30;;;;;;4978049;28;20240;-62
2023/07/24 08:12:04;;;;;;;1.40;1.30;;;23.80;45.20;;;;;;4974908;28;20227;-61
2023/07/24 08:14:30;;;;;;;1.30;1.20;;;23.80;45.30;;;;;;4975740;28;20561;-63
2023/07/24 08:16:55;;;;;;;1.30;1.20;;;23.80;45.30;;;;;;4976324;28;20469;-61
2023/07/24 08:19:21;;;;;;;1.43;1.10;;;23.80;45.20;;;;;;4991959;28;20444;-62
2023/07/24 08:21:47;;;;;;;1.23;1.13;;;23.80;45.30;;;;;;4986879;28;20274;-62
2023/07/24 08:24:12;;;;;;;1.30;1.20;;;23.80;45.20;;;;;;4985309;28;20227;-62
2023/07/24 08:26:38;;;;;;;1.50;1.40;;;23.80;45.30;;;;;;4976390;28;20468;-61
2023/07/24 08:29:04;;;;;;;1.30;1.20;;;23.80;45.20;;;;;;4986430;28;20227;-62
2023/07/24 08:31:30;;;;;;;1.37;1.27;;;23.80;45.20;;;;;;4973136;28;20224;-62
2023/07/24 08:33:56;;;;;;;1.30;1.20;;;23.80;45.30;;;;;;4977956;28;20497;-62
2023/07/24 08:36:21;;;;;;;1.30;1.20;;;23.80;45.30;;;;;;4975375;28;20232;-61
2023/07/24 08:38:47;;;;;;;1.30;1.20;;;23.80;45.30;;;;;;4983824;28;20252;-61
2023/07/24 08:41:14;;;;;;;1.50;1.40;;;23.80;45.30;;;;;;4994331;28;20232;-61
2023/07/24 08:43:41;;;;;;;1.20;1.10;;;23.80;45.30;;;;;;4997711;28;20306;-61
2023/07/24 08:46:08;;;;;;;1.30;1.20;;;23.80;45.20;;;;;;4987039;28;20497;-62
2023/07/24 08:48:36;;;;;;;1.43;1.33;;;23.80;45.20;;;;;;4983170;28;20483;-61
2023/07/24 08:51:06;;;;;;;1.20;1.10;;;23.80;45.30;;;;;;4974897;28;20505;-62
2023/07/24 08:53:36;;;;;;;1.30;1.20;;;23.80;45.30;;;;;;4981404;28;20507;-61
2023/07/24 08:56:04;;;;;;;1.53;1.43;;;23.80;45.70;;;;;;4989805;28;20539;-61
2023/07/24 08:58:30;;;;;;;1.60;1.50;;;23.80;45.30;;;;;;4996057;28;20519;-61
2023/07/24 09:00:57;;;;;;;1.33;1.23;;;23.80;45.30;;;;;;4996119;28;20457;-62
2023/07/24 09:03:23;;;;;;;1.37;1.27;;;23.80;45.30;;;;;;4994177;28;20227;-61
2023/07/24 09:05:48;;;;;;;1.43;1.33;;;23.80;45.30;;;;;;4982271;28;20457;-62
2023/07/24 09:08:14;;;;;;;1.33;1.23;;;23.80;45.30;;;;;;4988828;28;20799;-61
2023/07/24 09:10:40;;;;;;;1.40;1.30;;;23.80;45.30;;;;;;4990657;28;20219;-61
2023/07/24 09:13:07;;;;;;;1.37;1.27;;;23.80;45.30;;;;;;4996982;28;20450;-61
2023/07/24 09:15:42;;;;;;;1.37;1.27;;;23.80;46.10;;;;;;4984155;28;20228;-63
2023/07/24 09:18:09;;;;;;;1.23;1.13;;;23.80;45.30;;;;;;4975739;28;20446;-61
2023/07/24 09:20:40;;;;;;;1.40;1.30;;;23.80;45.30;;;;;;4976268;28;20472;-62
2023/07/24 09:23:07;;;;;;;1.20;1.10;;;23.80;45.30;;;;;;4975094;28;20960;-60
2023/07/24 09:25:33;;;;;;;1.40;1.30;;;23.80;45.30;;;;;;4974791;28;20565;-61
2023/07/24 09:27:59;;;;;;;1.40;1.30;;;23.80;45.40;;;;;;4975190;28;20531;-62
2023/07/24 09:30:25;;;;;;;1.33;1.23;;;23.80;45.30;;;;;;4977159;28;21006;-62
2023/07/24 09:32:55;;;;;;;1.40;1.30;;;23.80;45.30;;;;;;4996611;28;20220;-61
2023/07/24 09:35:28;;;;;;;1.70;1.60;;;23.80;45.30;;;;;;4999179;28;20657;-61
2023/07/24 09:38:11;;;;;;;1.30;1.20;;;23.80;45.30;;;;;;4979559;28;20455;-61
2023/07/24 09:40:45;;;;;;;1.40;1.30;;;23.80;45.30;;;;;;4972059;28;21045;-61
2023/07/24 09:43:15;;;;;;;1.50;1.40;;;23.80;45.30;;;;;;4991651;28;20461;-62
2023/07/24 09:45:41;;;;;;;1.23;1.13;;;23.80;45.30;;;;;;4990923;28;20493;-61
2023/07/24 09:48:11;;;;;;;1.30;1.20;;;23.80;45.30;;;;;;4981045;28;20559;-61
2023/07/24 09:50:37;;;;;;;1.30;1.20;;;23.80;45.30;;;;;;4973855;28;20462;-61
2023/07/24 09:53:04;;;;;;;1.60;1.50;;;23.80;45.30;;;;;;4976076;28;20489;-62
2023/07/24 09:55:37;;;;;;;1.50;1.40;;;23.80;45.30;;;;;;4975831;28;20811;-61
2023/07/24 09:58:04;;;;;;;1.30;1.20;;;23.80;45.30;;;;;;5024744;28;20472;-61
2023/07/24 10:00:31;;;;;;;1.50;1.40;;;23.80;45.40;;;;;;4995993;28;20465;-62
2023/07/24 10:02:57;;;;;;;1.50;1.40;;;23.80;45.30;;;;;;4980849;28;20457;-62
2023/07/24 10:05:23;;;;;;;1.60;1.50;;;23.80;45.30;;;;;;4973900;28;20464;-62
2023/07/24 10:07:49;;;;;;;1.27;1.17;;;23.80;45.30;;;;;;4975058;28;20450;-61
2023/07/24 10:10:16;;;;;;;1.50;1.40;;;23.80;45.30;;;;;;4973975;28;20640;-62
2023/07/24 10:12:42;;;;;;;1.10;1.00;;;23.80;45.40;;;;;;4987935;28;20449;-61
2023/07/24 10:15:08;;;;;;;1.40;1.30;;;23.80;45.30;;;;;;4991407;28;20252;-62
2023/07/24 10:17:41;;;;;;;1.50;1.40;;;23.80;45.40;;;;;;4992502;28;20550;-61
2023/07/24 10:20:09;;;;;;;1.23;1.13;;;23.80;45.40;;;;;;4993107;28;20223;-62
2023/07/24 10:22:37;;;;;;;1.00;1.00;;;23.80;45.40;;;;;;4994740;28;20503;-62
2023/07/24 10:25:04;;;;;;;1.27;1.17;;;23.80;45.40;;;;;;4992574;28;20954;-63
2023/07/24 10:27:30;;;;;;;1.33;1.23;;;23.80;45.40;;;;;;4996742;28;20565;-61
2023/07/24 10:30:04;;;;;;;1.50;1.40;;;23.80;45.50;;;;;;4987024;28;20588;-62
2023/07/24 10:32:30;;;;;;;1.30;1.20;;;23.80;45.40;;;;;;4973099;28;20294;-62
2023/07/24 10:34:57;;;;;;;1.20;1.10;;;23.80;45.40;;;;;;4969732;28;20501;-61
2023/07/24 10:37:35;;;;;;;1.40;1.30;;;23.80;45.40;;;;;;4975082;28;20227;-61
2023/07/24 10:40:00;;;;;;;1.40;1.30;;;23.80;45.40;;;;;;4974387;28;20492;-61
2023/07/24 10:42:26;;;;;;;1.43;1.33;;;23.80;45.40;;;;;;4974754;28;20459;-61
2023/07/24 10:45:08;;;;;;;1.47;1.37;;;23.80;45.40;;;;;;4974924;28;20641;-62
2023/07/24 10:47:34;;;;;;;1.50;1.40;;;23.80;45.30;;;;;;4974552;28;20232;-62
2023/07/24 10:50:01;;;;;;;1.43;1.33;;;23.80;45.40;;;;;;4973597;28;20465;-61
2023/07/24 10:52:30;;;;;;;1.30;1.20;;;23.80;45.40;;;;;;4982439;28;20224;-62
2023/07/24 10:54:56;;;;;;;1.30;1.20;;;23.80;45.40;;;;;;4975029;28;20467;-62
2023/07/24 10:57:30;;;;;;;1.40;1.30;;;23.80;45.40;;;;;;4976504;28;20467;-61
2023/07/24 10:59:56;;;;;;;1.33;1.23;;;23.80;45.40;;;;;;4973425;28;20244;-63
2023/07/24 11:02:22;;;;;;;1.20;1.10;;;23.80;45.40;;;;;;4981201;28;20511;-61
2023/07/24 11:04:48;;;;;;;1.20;1.10;;;23.80;45.50;;;;;;4992668;28;20617;-61
2023/07/24 11:07:14;;;;;;;1.40;1.30;;;23.80;45.40;;;;;;4992986;28;20457;-62
2023/07/24 11:09:40;;;;;;;1.30;1.20;;;23.80;45.40;;;;;;4987755;28;20223;-61
2023/07/24 11:12:16;;;;;;;1.20;1.10;;;23.80;45.40;;;;;;4982879;28;20550;-62
2023/07/24 11:14:56;;;;;;;1.40;1.30;;;23.80;45.50;;;;;;4991174;28;20361;-61
2023/07/24 11:17:22;;;;;;;1.30;1.20;;;23.80;45.50;;;;;;4989535;28;20514;-62
2023/07/24 11:19:47;;;;;;;1.43;1.33;;;23.80;45.50;;;;;;4975294;28;20449;-62
2023/07/24 11:22:14;;;;;;;1.30;1.20;;;23.80;45.50;;;;;;4974547;28;20443;-62
2023/07/24 11:24:46;;;;;;;1.60;1.50;;;23.80;45.50;;;;;;4979114;28;20247;-62
2023/07/24 11:27:17;;;;;;;1.40;1.30;;;23.80;45.50;;;;;;4993792;28;20505;-61
2023/07/24 11:29:49;;;;;;;1.30;1.20;;;23.80;45.50;;;;;;4972192;28;20940;-62
2023/07/24 11:32:18;;;;;;;1.37;1.27;;;23.80;45.50;;;;;;4974534;28;20449;-61
2023/07/24 11:34:44;;;;;;;1.20;1.10;;;23.80;45.50;;;;;;4990399;28;20481;-61
2023/07/24 11:37:09;;;;;;;1.20;1.10;;;23.80;45.50;;;;;;4974498;28;20486;-61
2023/07/24 11:39:35;;;;;;;1.40;1.30;;;23.80;45.50;;;;;;4994237;28;20234;-61
2023/07/24 11:42:01;;;;;;;1.40;1.30;;;23.80;45.50;;;;;;4990230;28;20315;-61
2023/07/24 11:44:28;;;;;;;1.40;1.30;;;23.80;45.50;;;;;;4988826;28;20216;-61
2023/07/24 11:47:03;;;;;;;1.33;1.23;;;23.80;45.50;;;;;;4991979;28;20575;-61
2023/07/24 11:49:31;;;;;;;1.20;1.10;;;23.80;45.40;;;;;;4990127;28;20461;-61
2023/07/24 11:52:15;;;;;;;1.30;1.20;;;23.80;45.50;;;;;;4992174;28;20453;-62
2023/07/24 11:54:40;;;;;;;1.50;1.40;;;23.80;45.50;;;;;;4973278;28;21937;-62
2023/07/24 11:57:16;;;;;;;1.30;1.20;;;23.80;45.50;;;;;;4978935;28;20450;-61
2023/07/24 11:59:41;;;;;;;1.50;1.40;;;23.80;45.50;;;;;;4973241;28;20251;-61
2023/07/24 12:02:10;;;;;;;1.57;1.47;;;23.80;45.50;;;;;;4975650;28;20463;-62
2023/07/24 12:04:36;;;;;;;1.30;1.20;;;23.80;45.60;;;;;;4988202;28;20232;-62
2023/07/24 12:07:07;;;;;;;1.40;1.30;;;23.80;45.50;;;;;;4991812;28;21011;-61
2023/07/24 12:09:32;;;;;;;1.40;1.30;;;23.80;45.50;;;;;;4985665;28;20227;-61
2023/07/24 12:11:58;;;;;;;1.50;1.40;;;23.80;45.60;;;;;;4973988;28;20450;-61
2023/07/24 12:14:25;;;;;;;1.30;1.20;;;23.80;45.60;;;;;;4974635;28;20224;-61
2023/07/24 12:17:00;;;;;;;1.40;1.30;;;23.80;45.60;;;;;;4971670;28;20455;-62
2023/07/24 12:19:26;;;;;;;1.30;1.20;;;23.80;45.50;;;;;;4971101;28;20458;-62
2023/07/24 12:21:51;;;;;;;1.10;1.00;;;23.80;45.60;;;;;;4973611;28;20466;-62
2023/07/24 12:24:17;;;;;;;1.23;1.13;;;23.70;45.50;;;;;;4979810;28;20244;-62
2023/07/24 12:26:42;;;;;;;1.37;1.23;;;23.80;45.50;;;;;;4996158;28;20249;-62
2023/07/24 12:29:08;;;;;;;1.40;1.30;;;23.80;45.60;;;;;;4995814;28;20227;-61
2023/07/24 12:31:33;;;;;;;1.40;1.30;;;23.80;45.50;;;;;;4994849;28;20211;-62
2023/07/24 12:33:59;;;;;;;1.33;1.23;;;23.80;45.50;;;;;;5024652;28;20252;-62
2023/07/24 12:36:24;;;;;;;1.27;1.17;;;23.80;45.60;;;;;;4987930;28;20223;-62
2023/07/24 12:38:50;;;;;;;1.30;1.20;;;23.70;45.50;;;;;;4997950;28;20227;-62
2023/07/24 12:41:15;;;;;;;1.47;1.37;;;23.80;45.60;;;;;;4995217;28;20255;-63
2023/07/24 12:43:41;;;;;;;1.40;1.20;;;23.80;45.60;;;;;;4984490;28;20216;-62